Jackson, Mississippi
Current Conditions -  °F | °C
As of 8:53 PM on Friday 21 Nov 2014 (Local Time) from KHKS Reporting Station
Clear Clear  
Wind Chill: 58°   Ceiling: Unl
Heat Index: 58°   Visibility: 10mi
Dew Point: 46°   Wind: 5mph
Humidity: 65%   Direction: 110°ESE
Pressure: 30.29"   Gusts: NA
Location:  32.3°N, 90.18°W
Report Text: KHKS 220253Z 11004KT 10SM CLR 14/08 A3029 RMK AO2 SLP250 T01440078 53007
Loading
Personal Weather Stations






























Interactive Weather Map New forecast layout! Learn more

10-Day Weather Forecast

Advertisements
Track Severe Weather on mobile